Terminal Aerodrome Forecast
Issued by NWS

Current Version | Previous Version | Text Only | Print | Product List | Glossary Off
Versions: 1 2 3 4 5 6 7 8 9 10 11 12 13 14 15 16 17 18 19 20 21 22

000
FTUS41 KILN 310900 AAA
TAFLUK
TAF AMD
KLUK 310918Z 3109/0106 00000KT 2SM -SHRA BR SCT010 BKN100
      TEMPO 3109/3111 1SM SHRA BR OVC005
     FM311100 19003KT 1 1/2SM -SHRA BR OVC005
     FM311600 20005KT 2SM -SHRA BR VCTS OVC010CB
     FM311800 20007KT P6SM VCTS OVC015CB
     FM312100 21006KT P6SM VCTS OVC025CB
     FM010100 00000KT P6SM OVC035=

USA.gov is the U.S. government's official web portal to all federal, state and local government web resources and services.